createdAt,value
2023-05-14T00:02:23.155Z,0.30
2023-05-14T00:04:56.250Z,0.30
2023-05-14T00:07:30.917Z,0.30
2023-05-14T00:10:00.891Z,0.30
2023-05-14T00:12:30.682Z,0.30
2023-05-14T00:15:00.800Z,0.30
2023-05-14T00:17:30.535Z,0.30
2023-05-14T00:20:03.101Z,0.30
2023-05-14T00:22:32.851Z,0.30
2023-05-14T00:25:02.611Z,0.20
2023-05-14T00:27:32.387Z,0.30
2023-05-14T00:30:02.246Z,0.30
2023-05-14T00:32:32.205Z,0.20
2023-05-14T00:35:04.992Z,0.30
2023-05-14T00:37:34.877Z,0.30
2023-05-14T00:40:04.542Z,0.30
2023-05-14T00:42:34.226Z,0.30
2023-05-14T00:45:03.881Z,0.30
2023-05-14T00:47:34.995Z,0.30
2023-05-14T00:50:08.224Z,0.30
2023-05-14T00:52:37.905Z,0.30
2023-05-14T00:55:10.884Z,0.30
2023-05-14T00:57:40.858Z,0.30
2023-05-14T01:00:11.986Z,0.30
2023-05-14T01:02:41.778Z,0.30
2023-05-14T01:05:14.591Z,0.30
2023-05-14T01:07:52.163Z,0.30
2023-05-14T01:10:27.775Z,0.30
2023-05-14T01:13:05.161Z,0.40
2023-05-14T01:15:37.577Z,0.30
2023-05-14T01:18:16.736Z,0.30
2023-05-14T01:20:49.442Z,0.30
2023-05-14T01:23:21.702Z,0.30
2023-05-14T01:25:51.716Z,0.30
2023-05-14T01:28:23.477Z,0.30
2023-05-14T01:30:59.963Z,0.30
2023-05-14T01:33:32.564Z,0.30
2023-05-14T01:36:02.896Z,0.30
2023-05-14T01:38:36.517Z,0.30
2023-05-14T01:41:07.957Z,0.30
2023-05-14T01:43:38.390Z,0.30
2023-05-14T01:46:08.348Z,0.30
2023-05-14T01:48:38.030Z,0.30
2023-05-14T01:51:07.822Z,0.30
2023-05-14T01:53:40.375Z,0.30
2023-05-14T01:56:10.586Z,0.30
2023-05-14T01:58:40.148Z,0.30
2023-05-14T02:01:09.863Z,0.30
2023-05-14T02:03:39.648Z,0.30
2023-05-14T02:06:09.709Z,0.40
2023-05-14T02:08:42.053Z,0.30
2023-05-14T02:11:12.145Z,0.30
2023-05-14T02:13:42.044Z,0.30
2023-05-14T02:16:12.514Z,0.30
2023-05-14T02:18:42.484Z,0.30
2023-05-14T02:21:12.156Z,0.30
2023-05-14T02:23:44.520Z,0.30
2023-05-14T02:26:14.618Z,0.30
2023-05-14T02:28:44.205Z,0.30
2023-05-14T02:31:17.912Z,0.30
2023-05-14T02:33:47.727Z,0.30
2023-05-14T02:36:17.666Z,0.30
2023-05-14T02:38:49.904Z,0.30
2023-05-14T02:41:20.170Z,0.40
2023-05-14T02:43:49.923Z,0.30
2023-05-14T02:46:22.583Z,0.30
2023-05-14T02:48:52.450Z,0.40
2023-05-14T02:51:23.082Z,0.30
2023-05-14T02:53:55.736Z,0.30
2023-05-14T02:56:26.623Z,0.30
2023-05-14T02:58:56.354Z,0.30
2023-05-14T03:01:26.544Z,0.30
2023-05-14T03:03:56.956Z,0.30
2023-05-14T03:06:26.750Z,0.30
2023-05-14T03:08:59.250Z,0.30
2023-05-14T03:11:29.224Z,0.30
2023-05-14T03:13:58.760Z,0.30
2023-05-14T03:16:28.410Z,0.30
2023-05-14T03:18:58.245Z,0.30
2023-05-14T03:21:28.286Z,0.30
2023-05-14T03:24:01.186Z,0.30
2023-05-14T03:26:30.822Z,0.40
2023-05-14T03:29:00.461Z,0.30
2023-05-14T03:31:30.229Z,0.30
2023-05-14T03:33:59.941Z,0.35
2023-05-14T03:36:29.804Z,0.38
2023-05-14T03:39:02.132Z,0.30
2023-05-14T03:41:31.969Z,0.30
2023-05-14T03:44:01.654Z,0.30
2023-05-14T03:46:31.297Z,0.30
2023-05-14T03:49:01.230Z,0.30
2023-05-14T03:51:31.993Z,0.35
2023-05-14T03:54:04.240Z,0.30
2023-05-14T03:56:34.142Z,0.30
2023-05-14T03:59:03.762Z,0.30
2023-05-14T04:01:35.026Z,0.40
2023-05-14T04:04:04.780Z,0.40
2023-05-14T04:06:35.834Z,0.30
2023-05-14T04:09:08.069Z,0.40
2023-05-14T04:11:38.046Z,0.30
2023-05-14T04:14:08.426Z,0.40
2023-05-14T04:16:38.292Z,0.40
2023-05-14T04:19:08.961Z,0.30
2023-05-14T04:21:39.096Z,0.40
2023-05-14T04:24:11.830Z,0.35
2023-05-14T04:26:41.605Z,0.30
2023-05-14T04:29:11.257Z,0.30
2023-05-14T04:31:41.153Z,0.30
2023-05-14T04:34:10.965Z,0.30
2023-05-14T04:36:40.559Z,0.30
2023-05-14T04:39:12.939Z,0.40
2023-05-14T04:41:42.863Z,0.30
2023-05-14T04:44:12.456Z,0.40
2023-05-14T04:46:42.421Z,0.32
2023-05-14T04:49:12.321Z,0.30
2023-05-14T04:51:42.004Z,0.30
2023-05-14T04:54:14.477Z,0.30
2023-05-14T04:56:44.435Z,0.32
2023-05-14T04:59:14.052Z,0.40
2023-05-14T05:01:43.919Z,0.30
2023-05-14T05:04:13.585Z,0.30
2023-05-14T05:06:43.280Z,0.30
2023-05-14T05:09:16.396Z,0.30
2023-05-14T05:11:46.198Z,0.40
2023-05-14T05:14:15.857Z,0.30
2023-05-14T05:16:45.593Z,0.40
2023-05-14T05:19:15.438Z,0.30
2023-05-14T05:21:45.642Z,0.30
2023-05-14T05:24:17.820Z,0.30
2023-05-14T05:26:47.764Z,0.30
2023-05-14T05:29:17.286Z,0.32
2023-05-14T05:31:46.994Z,0.30
2023-05-14T05:34:17.019Z,0.30
2023-05-14T05:36:46.753Z,0.20
2023-05-14T05:39:19.205Z,0.30
2023-05-14T05:41:48.992Z,0.30
2023-05-14T05:44:19.058Z,0.30
2023-05-14T05:46:48.703Z,0.30
2023-05-14T05:49:18.536Z,0.30
2023-05-14T05:51:48.095Z,0.30
2023-05-14T05:54:20.808Z,0.30
2023-05-14T05:56:50.618Z,0.30
2023-05-14T05:59:23.175Z,0.30
2023-05-14T06:01:53.050Z,0.30
2023-05-14T06:04:22.818Z,0.30
2023-05-14T06:06:52.451Z,0.30
2023-05-14T06:09:24.958Z,0.20
2023-05-14T06:11:54.672Z,0.30
2023-05-14T06:14:25.445Z,0.30
2023-05-14T06:16:55.313Z,0.30
2023-05-14T06:19:25.743Z,0.30
2023-05-14T06:21:56.104Z,0.30
2023-05-14T06:24:31.287Z,0.30
2023-05-14T06:27:00.950Z,0.30
2023-05-14T06:29:30.689Z,0.20
2023-05-14T06:32:04.831Z,0.20
2023-05-14T06:34:34.884Z,0.30
2023-05-14T06:37:04.506Z,0.20
2023-05-14T06:39:36.796Z,0.20
2023-05-14T06:42:10.570Z,0.30
2023-05-14T06:44:40.223Z,0.30
2023-05-14T06:47:10.706Z,0.22
2023-05-14T06:49:40.999Z,0.20
2023-05-14T06:52:10.759Z,0.30
2023-05-14T06:54:42.921Z,0.30
2023-05-14T06:57:12.757Z,0.30
2023-05-14T06:59:42.342Z,0.20
2023-05-14T07:02:12.075Z,0.30
2023-05-14T07:04:41.833Z,0.30
2023-05-14T07:07:18.101Z,0.20
2023-05-14T07:09:53.676Z,0.25
2023-05-14T07:12:23.411Z,0.20
2023-05-14T07:14:57.076Z,0.20
2023-05-14T07:17:27.380Z,0.22
2023-05-14T07:19:57.451Z,0.30
2023-05-14T07:22:27.101Z,0.20
2023-05-14T07:24:59.403Z,0.28
2023-05-14T07:27:29.350Z,0.30
2023-05-14T07:29:58.948Z,0.30
2023-05-14T07:32:28.685Z,0.20
2023-05-14T07:34:58.281Z,0.20
2023-05-14T07:37:30.952Z,0.20
2023-05-14T07:40:03.298Z,0.20
2023-05-14T07:42:36.409Z,0.20
2023-05-14T07:45:09.738Z,0.20
2023-05-14T07:47:39.575Z,0.20
2023-05-14T07:50:10.812Z,0.20
2023-05-14T07:52:40.681Z,0.20
2023-05-14T07:55:13.715Z,0.20
2023-05-14T07:57:43.430Z,0.25
2023-05-14T08:00:14.265Z,0.20
2023-05-14T08:02:44.348Z,0.20
2023-05-14T08:05:14.290Z,0.20
2023-05-14T08:07:44.217Z,0.20
2023-05-14T08:10:16.666Z,0.20
2023-05-14T08:12:46.400Z,0.20
2023-05-14T08:15:15.950Z,0.20
2023-05-14T08:17:45.780Z,0.20
2023-05-14T08:20:15.873Z,0.20
2023-05-14T08:22:45.457Z,0.17
2023-05-14T08:25:17.817Z,0.20
2023-05-14T08:27:47.576Z,0.20
2023-05-14T08:30:18.146Z,0.20
2023-05-14T08:32:47.896Z,0.20
2023-05-14T08:35:17.431Z,0.10
2023-05-14T08:37:47.141Z,0.10
2023-05-14T08:40:19.783Z,0.10
2023-05-14T08:42:50.621Z,0.13
2023-05-14T08:45:22.387Z,0.10
2023-05-14T08:47:53.453Z,0.10
2023-05-14T08:50:23.907Z,0.10
2023-05-14T08:52:54.456Z,0.20
2023-05-14T08:55:26.853Z,0.10
2023-05-14T08:57:56.861Z,0.10
2023-05-14T09:00:27.088Z,0.10
2023-05-14T09:02:58.071Z,0.10
2023-05-14T09:05:28.222Z,0.10
2023-05-14T09:07:58.442Z,0.20
2023-05-14T09:10:30.647Z,0.10
2023-05-14T09:13:00.540Z,0.10
2023-05-14T09:15:32.044Z,0.20
2023-05-14T09:18:02.085Z,0.20
2023-05-14T09:20:31.949Z,0.10
2023-05-14T09:23:02.008Z,0.10
2023-05-14T09:25:35.737Z,0.10
2023-05-14T09:28:09.543Z,0.10
2023-05-14T09:30:39.630Z,0.10
2023-05-14T09:33:10.591Z,0.10
2023-05-14T09:35:41.599Z,0.10
2023-05-14T09:38:11.374Z,0.10
2023-05-14T09:40:43.502Z,0.10
2023-05-14T09:43:14.129Z,0.10
2023-05-14T09:45:44.344Z,0.10
2023-05-14T09:48:13.991Z,0.10
2023-05-14T09:50:45.519Z,0.10
2023-05-14T09:53:17.891Z,0.10
2023-05-14T09:55:50.490Z,0.10
2023-05-14T09:58:20.152Z,0.10
2023-05-14T10:00:50.258Z,0.10
2023-05-14T10:03:23.045Z,0.10
2023-05-14T10:05:54.008Z,0.00
2023-05-14T10:08:27.911Z,0.10
2023-05-14T10:11:04.778Z,0.10
2023-05-14T10:13:38.568Z,0.13
2023-05-14T10:16:13.590Z,0.00
2023-05-14T10:18:46.917Z,0.10
2023-05-14T10:21:17.949Z,0.10
2023-05-14T10:23:48.480Z,0.10
2023-05-14T10:26:23.219Z,0.10
2023-05-14T10:28:54.249Z,0.00
2023-05-14T10:31:26.284Z,0.10
2023-05-14T10:36:25.677Z,0.10
2023-05-14T10:38:58.972Z,0.10
2023-05-14T10:41:31.397Z,0.00
2023-05-14T10:44:02.287Z,0.00
2023-05-14T10:46:32.173Z,0.00
2023-05-14T10:49:02.386Z,0.10
2023-05-14T10:51:33.641Z,0.10
2023-05-14T10:54:04.080Z,0.10
2023-05-14T10:56:36.459Z,0.08
2023-05-14T10:59:06.283Z,0.10
2023-05-14T11:01:36.282Z,0.10
2023-05-14T11:04:06.811Z,0.00
2023-05-14T11:06:36.954Z,0.10
2023-05-14T11:09:08.677Z,0.10
2023-05-14T11:11:40.992Z,0.10
2023-05-14T11:14:10.863Z,0.10
2023-05-14T11:16:41.602Z,0.10
2023-05-14T11:19:11.814Z,0.00
2023-05-14T11:21:41.853Z,0.10
2023-05-14T11:24:11.727Z,0.10
2023-05-14T11:26:44.046Z,0.00
2023-05-14T11:29:13.832Z,0.05
2023-05-14T11:31:43.783Z,0.10
2023-05-14T11:34:13.502Z,0.10
2023-05-14T11:36:43.473Z,0.10
2023-05-14T11:39:20.750Z,0.10
2023-05-14T11:41:53.078Z,0.10
2023-05-14T11:44:22.811Z,0.10
2023-05-14T11:46:58.994Z,0.10
2023-05-14T11:49:30.007Z,0.10
2023-05-14T11:52:03.714Z,0.00
2023-05-14T11:54:34.598Z,0.10
2023-05-14T11:57:13.344Z,0.10
2023-05-14T11:59:43.427Z,0.00
2023-05-14T12:02:14.833Z,0.10
2023-05-14T12:04:45.465Z,0.10
2023-05-14T12:07:19.077Z,0.00
2023-05-14T12:09:51.579Z,0.03
2023-05-14T12:12:25.293Z,0.10
2023-05-14T12:14:55.047Z,0.10
2023-05-14T12:17:25.976Z,0.10
2023-05-14T12:19:57.203Z,0.08
2023-05-14T12:22:27.357Z,0.10
2023-05-14T12:24:58.265Z,0.10
2023-05-14T12:27:32.329Z,0.10
2023-05-14T12:30:19.029Z,0.10
2023-05-14T12:32:53.109Z,0.10
2023-05-14T12:35:24.434Z,0.10
2023-05-14T12:37:54.367Z,0.10
2023-05-14T12:40:24.147Z,0.10
2023-05-14T12:42:57.014Z,0.10
2023-05-14T12:45:26.884Z,0.20
2023-05-14T12:47:56.556Z,0.10
2023-05-14T12:50:26.697Z,0.10
2023-05-14T12:52:56.460Z,0.10
2023-05-14T12:55:26.070Z,0.10
2023-05-14T12:57:58.354Z,0.10
2023-05-14T13:00:28.266Z,0.10
2023-05-14T13:02:57.961Z,0.13
2023-05-14T13:05:27.904Z,0.10
2023-05-14T13:07:57.683Z,0.10
2023-05-14T13:10:27.276Z,0.10
2023-05-14T13:12:59.608Z,0.10
2023-05-14T13:15:29.404Z,0.10
2023-05-14T13:17:59.052Z,0.10
2023-05-14T13:20:29.787Z,0.10
2023-05-14T13:22:59.535Z,0.10
2023-05-14T13:25:29.126Z,0.00
2023-05-14T13:28:01.521Z,0.10
2023-05-14T13:30:32.200Z,0.10
2023-05-14T13:33:02.707Z,0.10
2023-05-14T13:35:32.318Z,0.10
2023-05-14T13:38:01.922Z,0.10
2023-05-14T13:40:31.687Z,0.10
2023-05-14T13:43:03.844Z,0.10
2023-05-14T13:45:33.690Z,0.10
2023-05-14T13:48:03.314Z,0.10
2023-05-14T13:50:33.005Z,0.10
2023-05-14T13:53:02.748Z,0.10
2023-05-14T13:55:32.359Z,0.10
2023-05-14T13:58:05.085Z,0.00
2023-05-14T14:00:34.752Z,0.00
2023-05-14T14:03:04.312Z,0.10
2023-05-14T14:05:34.252Z,0.08
2023-05-14T14:08:13.119Z,0.10
2023-05-14T14:10:54.583Z,0.00
2023-05-14T14:13:28.049Z,0.10
2023-05-14T14:15:58.064Z,0.10
2023-05-14T14:18:27.838Z,0.10
2023-05-14T14:20:57.572Z,0.00
2023-05-14T14:24:25.890Z,0.00
2023-05-14T14:27:54.126Z,0.10
2023-05-14T14:31:25.066Z,0.10
2023-05-14T14:34:56.196Z,0.00
2023-05-14T14:38:24.506Z,0.10
2023-05-14T14:41:52.805Z,0.10
2023-05-14T14:45:21.191Z,0.08
2023-05-14T14:48:52.157Z,0.10
2023-05-14T14:52:20.585Z,0.10
2023-05-14T14:55:48.853Z,0.10
2023-05-14T14:59:17.326Z,0.10
2023-05-14T15:02:46.825Z,0.10
2023-05-14T15:06:17.908Z,0.10
2023-05-14T15:09:46.097Z,0.10
2023-05-14T15:13:15.014Z,0.10
2023-05-14T15:16:43.479Z,0.10
2023-05-14T15:20:12.634Z,0.20
2023-05-14T15:23:43.614Z,0.10
2023-05-14T15:27:11.813Z,0.10
2023-05-14T15:30:40.051Z,0.10
2023-05-14T15:34:09.023Z,0.00
2023-05-14T15:37:38.910Z,0.10
2023-05-14T15:41:10.489Z,0.10
2023-05-14T15:44:39.367Z,0.00
2023-05-14T15:48:08.360Z,0.10
2023-05-14T15:51:37.137Z,0.10
2023-05-14T15:55:05.579Z,0.10
2023-05-14T15:58:36.538Z,0.00
2023-05-14T16:02:05.201Z,0.10
2023-05-14T16:05:33.694Z,0.10
2023-05-14T16:09:03.216Z,0.10
2023-05-14T16:12:31.467Z,0.10
2023-05-14T16:16:02.512Z,0.10
2023-05-14T16:19:30.944Z,0.10
2023-05-14T16:22:59.258Z,0.10
2023-05-14T16:26:27.578Z,0.10
2023-05-14T16:29:56.058Z,0.10
2023-05-14T16:33:26.826Z,0.10
2023-05-14T16:36:55.175Z,0.10
2023-05-14T16:40:24.313Z,0.10
2023-05-14T16:43:52.799Z,0.10
2023-05-14T16:47:21.134Z,0.10
2023-05-14T16:50:52.511Z,0.10
2023-05-14T16:54:21.310Z,0.20
2023-05-14T16:57:49.542Z,0.15
2023-05-14T17:01:17.896Z,0.10
2023-05-14T17:04:46.423Z,0.10
2023-05-14T17:08:17.515Z,0.10
2023-05-14T17:11:45.836Z,0.10
2023-05-14T17:15:14.675Z,0.10
2023-05-14T17:18:42.921Z,0.20
2023-05-14T17:22:11.409Z,0.20
2023-05-14T17:25:42.767Z,0.10
2023-05-14T17:29:11.102Z,0.10
2023-05-14T17:32:39.620Z,0.13
2023-05-14T17:36:08.350Z,0.10
2023-05-14T17:39:37.038Z,0.10
2023-05-14T17:43:08.667Z,0.13
2023-05-14T17:46:37.077Z,0.20
2023-05-14T17:50:05.497Z,0.20
2023-05-14T17:53:33.766Z,0.13
2023-05-14T17:57:02.155Z,0.20
2023-05-14T18:00:33.057Z,0.10
2023-05-14T18:04:01.432Z,0.20
2023-05-14T18:07:30.028Z,0.20
2023-05-14T18:11:00.900Z,0.20
2023-05-14T18:14:30.368Z,0.20
2023-05-14T18:18:01.361Z,0.20
2023-05-14T18:21:29.749Z,0.20
2023-05-14T18:24:58.163Z,0.20
2023-05-14T18:28:26.756Z,0.20
2023-05-14T18:31:55.017Z,0.20
2023-05-14T18:35:26.097Z,0.20
2023-05-14T18:38:54.604Z,0.20
2023-05-14T18:42:23.028Z,0.20
2023-05-14T18:45:51.455Z,0.20
2023-05-14T18:49:20.114Z,0.10
2023-05-14T18:52:51.068Z,0.20
2023-05-14T18:56:19.408Z,0.20
2023-05-14T18:59:47.642Z,0.10
2023-05-14T19:03:16.008Z,0.20
2023-05-14T19:06:44.405Z,0.20
2023-05-14T19:10:17.047Z,0.20
2023-05-14T19:13:46.828Z,0.10
2023-05-14T19:17:15.828Z,0.20
2023-05-14T19:20:46.765Z,0.20
2023-05-14T19:24:17.807Z,0.10
2023-05-14T19:27:50.726Z,0.20
2023-05-14T19:31:19.208Z,0.13
2023-05-14T19:34:48.067Z,0.20
2023-05-14T19:38:17.643Z,0.20
2023-05-14T19:41:48.358Z,0.20
2023-05-14T19:45:16.748Z,0.20
2023-05-14T19:48:45.233Z,0.20
2023-05-14T19:52:14.189Z,0.20
2023-05-14T19:55:42.403Z,0.20
2023-05-14T19:59:13.392Z,0.20
2023-05-14T20:02:43.534Z,0.20
2023-05-14T20:06:12.499Z,0.20
2023-05-14T20:09:40.970Z,0.20
2023-05-14T20:13:10.490Z,0.20
2023-05-14T20:16:41.912Z,0.20
2023-05-14T20:20:12.044Z,0.20
2023-05-14T20:23:40.405Z,0.20
2023-05-14T20:27:09.193Z,0.20
2023-05-14T20:30:37.477Z,0.30
2023-05-14T20:34:08.508Z,0.20
2023-05-14T20:37:36.880Z,0.20
2023-05-14T20:41:05.375Z,0.25
2023-05-14T20:44:33.738Z,0.20
2023-05-14T20:48:02.298Z,0.20
2023-05-14T20:51:33.510Z,0.30
2023-05-14T20:55:02.552Z,0.20
2023-05-14T20:58:30.900Z,0.20
2023-05-14T21:01:59.375Z,0.20
2023-05-14T21:05:28.094Z,0.20
2023-05-14T21:08:59.052Z,0.30
2023-05-14T21:12:27.385Z,0.20
2023-05-14T21:15:56.006Z,0.20
2023-05-14T21:19:24.869Z,0.22
2023-05-14T21:22:53.103Z,0.20
2023-05-14T21:26:24.544Z,0.20
2023-05-14T21:29:52.926Z,0.30
2023-05-14T21:33:21.569Z,0.30
2023-05-14T21:36:50.661Z,0.30
2023-05-14T21:40:18.824Z,0.20
2023-05-14T21:43:49.774Z,0.30
2023-05-14T21:47:18.058Z,0.30
2023-05-14T21:50:46.463Z,0.30
2023-05-14T21:54:14.694Z,0.20
2023-05-14T21:57:43.498Z,0.20
2023-05-14T22:01:14.830Z,0.20
2023-05-14T22:04:43.376Z,0.25
2023-05-14T22:08:11.609Z,0.20
2023-05-14T22:11:39.937Z,0.20
2023-05-14T22:15:08.933Z,0.20
2023-05-14T22:18:39.815Z,0.20
2023-05-14T22:22:08.208Z,0.20
2023-05-14T22:25:36.586Z,0.30
2023-05-14T22:29:05.197Z,0.28
2023-05-14T22:32:33.472Z,0.20
2023-05-14T22:36:04.573Z,0.22
2023-05-14T22:39:33.052Z,0.20
2023-05-14T22:43:01.620Z,0.20
2023-05-14T22:46:30.077Z,0.20
2023-05-14T22:49:58.361Z,0.20
2023-05-14T22:53:29.907Z,0.22
2023-05-14T22:56:58.597Z,0.20
2023-05-14T23:00:27.252Z,0.20
2023-05-14T23:03:55.525Z,0.22
2023-05-14T23:07:24.291Z,0.30
2023-05-14T23:10:55.051Z,0.20
2023-05-14T23:14:23.354Z,0.20
2023-05-14T23:17:51.567Z,0.20
2023-05-14T23:21:19.952Z,0.30
2023-05-14T23:24:48.339Z,0.30
2023-05-14T23:28:19.350Z,0.30
2023-05-14T23:31:47.839Z,0.25
2023-05-14T23:35:16.318Z,0.20
2023-05-14T23:38:44.891Z,0.22
2023-05-14T23:42:13.188Z,0.20
2023-05-14T23:45:44.292Z,0.20
2023-05-14T23:49:12.581Z,0.30
2023-05-14T23:52:41.131Z,0.30
2023-05-14T23:56:10.439Z,0.22
2023-05-14T23:59:40.376Z,0.30
